• Join FlightAware (Why Join?)
  • Login
  • US Flag 
02:20PM EDT


 

Airport Tracker/Info


-or-


 

Live Flight TrackerFlight Track Log ✈ JZA7939 ✈ 06-Oct-2013 ✈ CYYZ - KMKE

Flight Track Log - Related Links

Times and Time Zones

All times are in EDT time to prevent confusion due to time zone crossing. See the JZA7939 flight status page for this flight to view local times or setup timezone preferences in your user account.

Time Position Orientation Groundspeed Altitude Reporting Facility
EDT Latitude Longitude Course Direction KTS MPH feet Rate Location/Type
07:02PM 43.6667 -79.6333 270° West 30 35 500  Level Toronto Center
07:04PM 43.6667 -79.6333 216° Southwest 20 23 500  Level Toronto Center
07:06PM 43.6667 -79.6333 216° Southwest 10 12 500  Level Toronto Center
07:09PM 43.6667 -79.6500 270° West 10 12 500 360 Level Toronto Center
07:11PM 43.7167 -79.5833 44° Northeast 200 230 2,500 1,320 Climbing Toronto Center
07:12PM 43.7667 -79.5167 44° Northeast 250 288 4,600 2,280 Climbing Toronto Center
07:13PM 43.8167 -79.5667 324° Northwest 230 265 7,100 2,100 Climbing Toronto Center
07:14PM 43.8167 -79.6833 270° West 250 288 8,900 1,980 Climbing Toronto Center
07:15PM 43.8000 -79.7667 255° West 250 288 11,100 2,100 Climbing Toronto Center
07:16PM 43.8000 -79.8667 270° West 260 299 13,200 1,800 Climbing Toronto Center
07:17PM 43.7833 -79.9833 259° West 280 322 14,700 1,560 Climbing Toronto Center
07:18PM 43.7833 -80.1000 270° West 290 334 16,400 1,680 Climbing Toronto Center
07:19PM 43.7667 -80.1833 255° West 290 334 18,100 1,500 Climbing Toronto Center
07:20PM 43.7667 -80.3000 270° West 300 345 19,500 1,200 Climbing Toronto Center
07:21PM 43.7500 -80.4167 259° West 300 345 20,600 1,200 Climbing Toronto Center
07:22PM 43.7333 -80.5500 260° West 310 357 21,900 1,260 Climbing Toronto Center
07:23PM 43.7333 -80.6667 270° West 320 368 23,200 1,080 Climbing Toronto Center
07:24PM 43.7167 -80.7833 259° West 320 368 24,100 960 Climbing Toronto Center
07:25PM 43.7000 -80.9167 260° West 330 380 25,200 960 Climbing Toronto Center
07:26PM 43.6833 -81.0333 259° West 330 380 26,100 840 Climbing Toronto Center
07:27PM 43.6833 -81.1833 270° West 330 380 26,900 720 Climbing Toronto Center
07:28PM 43.6667 -81.3000 259° West 340 391 27,600 660 Climbing Toronto Center
07:29PM 43.6667 -81.4333 270° West 340 391 28,300 540 Climbing Toronto Center
07:30PM 43.6500 -81.5667 260° West 340 391 28,700 600 Climbing Toronto Center
07:31PM 43.6333 -81.7000 260° West 350 403 29,500 600 Climbing Toronto Center
07:32PM 43.6333 -81.8167 270° West 350 403 30,000 480 Climbing Toronto Center
07:33PM 43.6000 -81.9833 255° West 360 414 30,500 480 Climbing Toronto Center
07:34PM 43.6000 -82.1000 270° West 360 414 31,000 480 Climbing Toronto Center
07:35PM 43.5833 -82.2333 260° West 360 414 31,500 360 Climbing Toronto Center
07:36PM 43.5667 -82.3667 260° West 360 414 31,800 240 Climbing Toronto Center
07:37PM 43.5667 -82.5167 270° West 370 426 32,000 600 Climbing Toronto Center
07:38PM 43.5333 -82.6667 253° West 360 414 33,000 780 Climbing Toronto Center
07:39PM 43.5333 -82.7833 270° West 350 403 33,600 540 Climbing Toronto Center
07:40PM 43.5361 -82.8647 273° West 351 404 33,900 240 Climbing Cleveland Center
07:41PM 43.5225 -82.9944 262° West 346 398 34,000  Climbing Cleveland Center
07:42PM 43.5086 -83.1286 262° West 353 406 34,000  Level Cleveland Center
07:43PM 43.4947 -83.2631 262° West 357 411 34,000  Level Cleveland Center
07:44PM 43.4808 -83.4006 262° West 363 418 34,000  Level Cleveland Center
07:45PM 43.4636 -83.5681 262° West 370 426 34,000  Level Cleveland Center
07:46PM 43.4481 -83.7081 261° West 372 428 34,000  Level Cleveland Center
07:47PM 43.4322 -83.8494 261° West 375 432 34,000  Level Cleveland Center
07:48PM 43.4156 -84.0011 261° West 379 436 34,000  Level Cleveland Center
07:49PM 43.3992 -84.1464 261° West 385 443 34,000  Level Cleveland Center
07:50PM 43.3833 -84.2911 261° West 385 443 34,000  Level Cleveland Center
07:51PM 43.3631 -84.4675 261° West 388 447 34,000  Level Chicago Center
07:52PM 43.3453 -84.6139 261° West 390 449 34,000  Level Chicago Center
07:53PM 43.3292 -84.7611 261° West 390 449 34,000  Level Chicago Center
07:54PM 43.3117 -84.9081 261° West 392 451 34,000  Level Chicago Center
07:55PM 43.2936 -85.0547 260° West 393 452 34,000  Level Chicago Center
07:56PM 43.2719 -85.2306 260° West 391 450 34,000 -480 Level Chicago Center
07:57PM 43.2536 -85.3786 260° West 394 453 33,100 -840 Descending Chicago Center
07:58PM 43.2356 -85.5256 260° West 395 455 32,300 -1,020 Descending Chicago Center
07:59PM 43.2186 -85.6592 260° West 365 420 31,000 -1,140 Descending Chicago Center
08:00PM 43.2036 -85.7811 260° West 334 384 30,000 -1,020 Descending Chicago Center
08:01PM 43.1861 -85.9192 260° West 312 359 29,000 -1,200 Descending Chicago Center
08:02PM 43.1714 -86.0303 260° West 304 350 27,600 -1,500 Descending Chicago Center
08:03PM 43.1689 -86.1456 268° West 312 359 26,000 -1,560 Descending Chicago Center
08:04PM 43.1664 -86.2697 268° West 322 371 24,400 -1,020 Descending Chicago Center
08:05PM 43.1642 -86.4261 269° West 342 394 24,000 -720 Descending Chicago Center
08:06PM 43.1617 -86.5528 268° West 337 388 23,000 -1,800 Descending Chicago Center
08:08PM 43.1592 -86.6808 269° West 337 388 20,300 -2,700 Descending Chicago Center
08:09PM 43.1564 -86.8089 268° West 339 390 17,500 -2,400 Descending Chicago Center
08:10PM 43.1539 -86.9333 268° West 331 381 15,400 -1,920 Descending Chicago Center
08:11PM 43.1486 -87.0433 266° West 295 339 13,600 -1,980 Descending Chicago Center
08:12PM 43.1200 -87.1617 252° West 275 316 11,400 -1,980 Descending Chicago Center
08:13PM 43.0983 -87.2561 253° West 264 304 9,600 -1,680 Descending Chicago Center
08:14PM 43.0750 -87.3503 251° West 264 304 8,000 -1,740 Descending Chicago Center
08:15PM 43.0492 -87.4553 251° West 259 298 6,100 -1,620 Descending Chicago Center
08:16PM 43.0269 -87.5483 252° West 259 298 4,700 -1,020 Descending Chicago Center
08:17PM 43.0072 -87.6275 251° West 230 265 4,100 -720 Descending Chicago Center
08:18PM 42.9911 -87.6933 252° West 194 223 3,300 -780 Descending Chicago Center
08:19PM 42.9783 -87.7506 253° West 173 199 2,500 -660 Descending Chicago Center
08:20PM 42.9656 -87.8022 251° West 159 183 2,000 -540 Descending Chicago Center
08:21PM 42.9536 -87.8492 251° West 145 167 1,500 -300 Descending Chicago Center
08:23PM 42.9333 -87.8833 236° Southwest  Level FlightAware Approximate
08:24PM 42.9500 -87.8667 236° Southwest 17 20 700  Level KMKE